Time;durP1;ratioP1;P1;durP2;ratioP2;P2;SDS_P1;SDS_P2;PMS_P1;PMS_P2;Temp;Humidity;BMP_temperature;BMP_pressure;BME280_temperature;BME280_humidity;BME280_pressure;Samples;Min_cycle;Max_cycle;Signal;HPM_P1;HPM_P2
2022/10/07 00:01:57;;;;;;;;;;;;;;;10.18;100.00;-25352.22;5095683;28;19947;-81
2022/10/07 00:04:22;;;;;;;;;;;;;;;10.22;100.00;-25353.25;5095298;28;19926;-78
2022/10/07 00:06:49;;;;;;;;;;;;;;;10.18;100.00;-25352.06;5083869;28;19943;-77
2022/10/07 00:09:15;;;;;;;;;;;;;;;10.14;100.00;-25351.03;5084981;28;20430;-78
2022/10/07 00:11:40;;;;;;;;;;;;;;;10.16;100.00;-25351.47;5066529;28;19920;-78
2022/10/07 00:14:08;;;;;;;;;;;;;;;10.20;100.00;-25352.81;5058819;28;19920;-78
2022/10/07 00:16:37;;;;;;;;;;;;;;;10.25;100.00;-25354.13;5075344;28;20399;-81
2022/10/07 00:19:06;;;;;;;;;;;;;;;10.24;100.00;-25353.84;5059104;28;20502;-78
2022/10/07 00:21:32;;;;;;;;;;;;;;;10.29;100.00;-25355.16;5074175;28;19917;-78
2022/10/07 00:24:01;;;;;;;;;;;;;;;10.35;100.00;-25357.06;5058738;28;19916;-76
2022/10/07 00:26:28;;;;;;;;;;;;;;;10.38;100.00;-25357.94;5068909;28;19924;-76
2022/10/07 00:28:54;;;;;;;;;;;;;;;10.36;100.00;-25357.38;5093809;28;19924;-78
2022/10/07 00:31:21;;;;;;;;;;;;;;;10.33;100.00;-25356.47;5076106;28;19920;-76
2022/10/07 00:33:48;;;;;;;;;;;;;;;10.40;100.00;-25358.53;5074770;28;19928;-79
2022/10/07 00:36:15;;;;;;;;;;;;;;;10.43;100.00;-25359.13;5074634;28;19939;-76
2022/10/07 00:38:41;;;;;;;;;;;;;;;10.43;100.00;-25359.28;5075641;28;19924;-76
2022/10/07 00:41:08;;;;;;;;;;;;;;;10.41;100.00;-25358.84;5089118;28;19916;-77
2022/10/07 00:43:34;;;;;;;;;;;;;;;10.40;100.00;-25358.53;5092157;28;19951;-77
2022/10/07 00:46:05;;;;;;;;;;;;;;;10.37;100.00;-25357.66;5090821;28;20281;-78
2022/10/07 00:48:33;;;;;;;;;;;;;;;10.40;100.00;-25358.53;5058874;28;19916;-81
2022/10/07 00:50:59;;;;;;;;;;;;;;;10.42;100.00;-25358.97;5077993;28;19920;-78
2022/10/07 00:53:27;;;;;;;;;;;;;;;10.46;100.00;-25360.16;5095758;28;19962;-83
2022/10/07 00:55:56;;;;;;;;;;;;;;;10.55;100.00;-25362.63;5095350;28;19916;-82
2022/10/07 00:58:23;;;;;;;;;;;;;;;10.55;100.00;-25362.78;5095842;28;20007;-79
2022/10/07 01:00:48;;;;;;;;;;;;;;;10.55;100.00;-25362.63;5095538;28;19916;-75
2022/10/07 01:03:16;;;;;;;;;;;;;;;10.60;100.00;-25364.25;5097155;28;20376;-75
2022/10/07 01:05:43;;;;;;;;;;;;;;;10.62;100.00;-25364.56;5092330;28;19928;-78
2022/10/07 01:08:08;;;;;;;;;;;;;;;10.58;100.00;-25363.66;5080302;28;19920;-83
2022/10/07 01:10:51;;;;;;;;;;;;;;;10.52;100.00;-25361.91;5094684;28;20003;-84
2022/10/07 01:13:38;;;;;;;;;;;;;;;10.60;100.00;-25364.13;5075015;28;19916;-84
2022/10/07 01:16:14;;;;;;;;;;;;;;;10.65;100.00;-25365.56;5076740;28;19923;-83
2022/10/07 01:18:48;;;;;;;;;;;;;;;10.69;100.00;-25366.59;5064491;28;19923;-81
2022/10/07 01:21:45;;;;;;;;;;;;;;;10.65;100.00;-25365.44;5064389;28;20263;-81
2022/10/07 01:24:26;;;;;;;;;;;;;;;10.63;100.00;-25365.00;5014654;28;20277;-77
2022/10/07 01:27:08;;;;;;;;;;;;;;;10.60;100.00;-25364.25;5073945;28;19978;-80
2022/10/07 01:29:55;;;;;;;;;;;;;;;10.56;100.00;-25363.09;5075628;28;19925;-80
2022/10/07 01:32:30;;;;;;;;;;;;;;;10.54;100.00;-25362.50;5056974;28;19920;-82
2022/10/07 01:34:56;;;;;;;;;;;;;;;10.55;100.00;-25362.63;5059318;28;20507;-84
2022/10/07 01:37:23;;;;;;;;;;;;;;;10.53;100.00;-25362.22;5076324;28;19943;-76
2022/10/07 01:39:51;;;;;;;;;;;;;;;10.54;100.00;-25362.34;5056000;28;19921;-77
2022/10/07 01:42:19;;;;;;;;;;;;;;;10.48;100.00;-25360.72;5056980;28;19931;-77
2022/10/07 01:44:48;;;;;;;;;;;;;;;10.51;100.00;-25361.63;5073778;28;20007;-78
2022/10/07 01:47:15;;;;;;;;;;;;;;;10.50;100.00;-25361.19;5057038;28;19970;-77
2022/10/07 01:49:41;;;;;;;;;;;;;;;10.45;100.00;-25359.84;5056877;28;19921;-77
2022/10/07 01:52:16;;;;;;;;;;;;;;;10.50;100.00;-25361.19;5056636;28;19920;-76
2022/10/07 01:55:02;;;;;;;;;;;;;;;10.48;100.00;-25360.72;5080834;28;19916;-77
2022/10/07 01:57:34;;;;;;;;;;;;;;;10.43;100.00;-25359.13;5056078;28;19963;-77
2022/10/07 02:00:05;;;;;;;;;;;;;;;10.39;100.00;-25358.25;5073861;28;19923;-76
2022/10/07 02:02:51;;;;;;;;;;;;;;;10.38;100.00;-25357.94;5093068;28;20003;-77
2022/10/07 02:05:27;;;;;;;;;;;;;;;10.37;100.00;-25357.66;5070236;28;20018;-77
2022/10/07 02:07:56;;;;;;;;;;;;;;;10.36;100.00;-25357.38;5056810;28;20258;-76
2022/10/07 02:10:24;;;;;;;;;;;;;;;10.33;100.00;-25356.34;5090325;28;20020;-76
2022/10/07 02:13:11;;;;;;;;;;;;;;;10.30;100.00;-25355.59;5076811;28;20014;-76
2022/10/07 02:16:05;;;;;;;;;;;;;;;10.28;100.00;-25355.00;5073158;28;19958;-77
2022/10/07 02:18:38;;;;;;;;;;;;;;;10.24;100.00;-25353.84;5058455;28;20003;-77
2022/10/07 02:21:07;;;;;;;;;;;;;;;10.26;100.00;-25354.41;5056042;28;19971;-77
2022/10/07 02:23:35;;;;;;;;;;;;;;;10.24;100.00;-25353.84;5058205;28;20179;-75
2022/10/07 02:26:02;;;;;;;;;;;;;;;10.24;100.00;-25353.84;5093065;28;19927;-76
2022/10/07 02:28:29;;;;;;;;;;;;;;;10.23;100.00;-25353.53;5085865;28;19916;-77
2022/10/07 02:30:59;;;;;;;;;;;;;;;10.26;100.00;-25354.41;5088481;28;19920;-78
2022/10/07 02:33:29;;;;;;;;;;;;;;;10.27;100.00;-25354.56;5089303;28;19920;-81
2022/10/07 02:35:58;;;;;;;;;;;;;;;10.30;100.00;-25355.59;5093570;28;19916;-80
2022/10/07 02:38:25;;;;;;;;;;;;;;;10.28;100.00;-25354.88;5073949;28;19973;-78
2022/10/07 02:41:04;;;;;;;;;;;;;;;10.27;100.00;-25354.56;5076830;28;19967;-77
2022/10/07 02:43:47;;;;;;;;;;;;;;;10.29;100.00;-25355.31;5067473;28;19958;-77
2022/10/07 02:46:19;;;;;;;;;;;;;;;10.27;100.00;-25354.56;5073588;28;20339;-78
2022/10/07 02:48:56;;;;;;;;;;;;;;;10.21;100.00;-25353.09;5080339;28;19916;-79
2022/10/07 02:51:28;;;;;;;;;;;;;;;10.23;100.00;-25353.53;5078198;28;19927;-77
2022/10/07 02:53:55;;;;;;;;;;;;;;;10.14;100.00;-25350.91;5078089;28;19924;-80
2022/10/07 02:56:22;;;;;;;;;;;;;;;10.12;100.00;-25350.47;5092997;28;19927;-80
2022/10/07 02:58:48;;;;;;;;;;;;;;;10.07;100.00;-25349.00;5092930;28;19958;-81
2022/10/07 03:01:16;;;;;;;;;;;;;;;10.07;100.00;-25349.13;5092930;28;19928;-78
2022/10/07 03:03:47;;;;;;;;;;;;;;;10.06;100.00;-25348.69;5092739;28;19912;-78
2022/10/07 03:06:16;;;;;;;;;;;;;;;10.05;100.00;-25348.41;5088361;28;20292;-77
2022/10/07 03:08:42;;;;;;;;;;;;;;;10.02;100.00;-25347.53;5072580;28;19916;-77
2022/10/07 03:11:08;;;;;;;;;;;;;;;9.94;100.00;-25345.16;5056118;28;19921;-77
2022/10/07 03:13:34;;;;;;;;;;;;;;;9.94;100.00;-25345.31;5071468;28;19920;-80
2022/10/07 03:15:59;;;;;;;;;;;;;;;9.92;100.00;-25344.59;5092493;28;19916;-83
2022/10/07 03:18:25;;;;;;;;;;;;;;;9.87;100.00;-25343.41;5084930;28;19953;-83
2022/10/07 03:20:52;;;;;;;;;;;;;;;9.83;100.00;-25342.22;5056160;28;19925;-80
2022/10/07 03:23:22;;;;;;;;;;;;;;;9.82;100.00;-25341.78;5087062;28;19927;-77
2022/10/07 03:25:53;;;;;;;;;;;;;;;9.80;100.00;-25341.22;5092922;28;20446;-77
2022/10/07 03:28:19;;;;;;;;;;;;;;;9.76;100.00;-25340.03;5079179;28;19920;-78
2022/10/07 03:30:47;;;;;;;;;;;;;;;9.71;100.00;-25338.72;5073503;28;19916;-82
2022/10/07 03:33:13;;;;;;;;;;;;;;;9.73;100.00;-25339.31;5073264;28;19917;-82
2022/10/07 03:35:39;;;;;;;;;;;;;;;9.67;100.00;-25337.69;5092207;28;19916;-81
2022/10/07 03:38:07;;;;;;;;;;;;;;;9.67;100.00;-25337.53;5091270;28;20062;-80
2022/10/07 03:40:33;;;;;;;;;;;;;;;9.66;100.00;-25337.38;5072497;28;19921;-82
2022/10/07 03:43:06;;;;;;;;;;;;;;;9.64;100.00;-25336.66;5072584;28;19916;-80
2022/10/07 03:45:34;;;;;;;;;;;;;;;9.62;100.00;-25336.22;5072254;28;19916;-81
2022/10/07 03:47:59;;;;;;;;;;;;;;;9.65;100.00;-25337.09;5086184;28;20365;-81
2022/10/07 03:50:25;;;;;;;;;;;;;;;9.67;100.00;-25337.53;5080638;28;20003;-82
2022/10/07 03:52:51;;;;;;;;;;;;;;;9.69;100.00;-25338.28;5072679;28;19916;-82
2022/10/07 03:55:16;;;;;;;;;;;;;;;9.73;100.00;-25339.16;5071740;28;19923;-80
2022/10/07 03:57:52;;;;;;;;;;;;;;;9.72;100.00;-25338.84;5069956;28;19920;-81
2022/10/07 04:00:22;;;;;;;;;;;;;;;9.67;100.00;-25337.69;5072657;28;20639;-78
2022/10/07 04:02:48;;;;;;;;;;;;;;;9.66;100.00;-25337.38;5072213;28;20088;-78
2022/10/07 04:05:16;;;;;;;;;;;;;;;9.67;100.00;-25337.53;5072495;28;20043;-80
2022/10/07 04:07:46;;;;;;;;;;;;;;;9.61;100.00;-25335.91;5072840;28;20015;-80
2022/10/07 04:10:13;;;;;;;;;;;;;;;9.56;100.00;-25334.44;5072011;28;19917;-78
2022/10/07 04:12:46;;;;;;;;;;;;;;;9.56;100.00;-25334.31;5073394;28;20083;-80
2022/10/07 04:15:15;;;;;;;;;;;;;;;9.54;100.00;-25333.88;5072078;28;19917;-78
2022/10/07 04:17:40;;;;;;;;;;;;;;;9.59;100.00;-25335.34;5070924;28;20352;-78
2022/10/07 04:20:06;;;;;;;;;;;;;;;9.57;100.00;-25334.59;5088735;28;20012;-78
2022/10/07 04:22:31;;;;;;;;;;;;;;;9.57;100.00;-25334.75;5071192;28;19970;-78
2022/10/07 04:27:41;;;;;;;;;;;;;;;9.62;100.00;-25336.22;5073090;28;20103;-77
2022/10/07 04:30:08;;;;;;;;;;;;;;;9.59;100.00;-25335.19;5088111;28;20590;-79
2022/10/07 04:32:35;;;;;;;;;;;;;;;9.56;100.00;-25334.44;5054688;28;19924;-79
2022/10/07 04:35:02;;;;;;;;;;;;;;;9.58;100.00;-25335.03;5088712;28;19925;-80
2022/10/07 04:37:28;;;;;;;;;;;;;;;9.58;100.00;-25334.88;5091239;28;19951;-78
2022/10/07 04:39:54;;;;;;;;;;;;;;;9.58;100.00;-25335.03;5091461;28;20320;-78
2022/10/07 04:45:04;;;;;;;;;;;;;;;9.57;100.00;-25334.75;5086996;28;20375;-78
2022/10/07 04:47:34;;;;;;;;;;;;;;;9.51;100.00;-25333.13;5078375;28;19921;-78
2022/10/07 04:49:59;;;;;;;;;;;;;;;9.55;100.00;-25334.16;5075922;28;20013;-78
2022/10/07 04:52:26;;;;;;;;;;;;;;;9.58;100.00;-25334.88;5074488;28;19917;-78
2022/10/07 04:54:52;;;;;;;;;;;;;;;9.64;100.00;-25336.66;5091646;28;20369;-78
2022/10/07 04:57:18;;;;;;;;;;;;;;;9.70;100.00;-25338.41;5057734;28;19927;-79
2022/10/07 04:59:43;;;;;;;;;;;;;;;9.80;100.00;-25341.34;5076858;28;19943;-80
2022/10/07 05:02:09;;;;;;;;;;;;;;;9.87;100.00;-25343.25;5094526;28;19920;-78
2022/10/07 05:04:34;;;;;;;;;;;;;;;9.92;100.00;-25344.59;5077676;28;20319;-77
2022/10/07 05:07:00;;;;;;;;;;;;;;;9.92;100.00;-25344.72;5094049;28;19926;-78
2022/10/07 05:09:25;;;;;;;;;;;;;;;9.93;100.00;-25345.03;5077965;28;19947;-78
2022/10/07 05:11:51;;;;;;;;;;;;;;;9.94;100.00;-25345.16;5094235;28;20283;-80
2022/10/07 05:14:20;;;;;;;;;;;;;;;9.91;100.00;-25344.28;5093968;28;19922;-80
2022/10/07 05:16:46;;;;;;;;;;;;;;;9.96;100.00;-25345.91;5091638;28;19917;-78
2022/10/07 05:19:11;;;;;;;;;;;;;;;10.01;100.00;-25347.38;5077680;28;19920;-78
2022/10/07 05:21:36;;;;;;;;;;;;;;;10.09;100.00;-25349.44;5094488;28;19923;-78
2022/10/07 05:24:03;;;;;;;;;;;;;;;10.02;100.00;-25347.53;5096079;28;20007;-78
2022/10/07 05:26:29;;;;;;;;;;;;;;;10.00;100.00;-25347.09;5094187;28;19927;-79
2022/10/07 05:28:54;;;;;;;;;;;;;;;10.00;100.00;-25346.94;5094339;28;19916;-78
2022/10/07 05:31:20;;;;;;;;;;;;;;;10.03;100.00;-25347.97;5076984;28;19925;-79
2022/10/07 05:33:49;;;;;;;;;;;;;;;10.03;100.00;-25347.97;5094518;28;19916;-78
2022/10/07 05:36:15;;;;;;;;;;;;;;;10.05;100.00;-25348.41;5076821;28;19916;-78
2022/10/07 05:38:42;;;;;;;;;;;;;;;10.00;100.00;-25347.09;5093729;28;19924;-78
2022/10/07 05:41:09;;;;;;;;;;;;;;;9.95;100.00;-25345.47;5085888;28;19920;-78
2022/10/07 05:43:46;;;;;;;;;;;;;;;9.92;100.00;-25344.59;5081985;28;19971;-78
2022/10/07 05:46:13;;;;;;;;;;;;;;;9.91;100.00;-25344.44;5057337;28;19952;-78
2022/10/07 05:48:40;;;;;;;;;;;;;;;9.95;100.00;-25345.63;5072926;28;19959;-78
2022/10/07 05:51:06;;;;;;;;;;;;;;;9.97;100.00;-25346.19;5073717;28;19924;-79
2022/10/07 05:53:35;;;;;;;;;;;;;;;9.97;100.00;-25346.06;5074347;28;19921;-78
2022/10/07 05:56:05;;;;;;;;;;;;;;;9.99;100.00;-25346.63;5056802;28;19916;-77
2022/10/07 05:58:30;;;;;;;;;;;;;;;10.01;100.00;-25347.38;5056944;28;19995;-78
2022/10/07 06:00:57;;;;;;;;;;;;;;;10.00;100.00;-25347.09;5089807;28;19952;-77
2022/10/07 06:03:27;;;;;;;;;;;;;;;10.05;100.00;-25348.56;5083178;28;20011;-80
2022/10/07 06:05:53;;;;;;;;;;;;;;;10.05;100.00;-25348.41;5076440;28;19935;-79
2022/10/07 06:08:19;;;;;;;;;;;;;;;10.09;100.00;-25349.44;5076451;28;19916;-79
2022/10/07 06:13:29;;;;;;;;;;;;;;;10.06;100.00;-25348.84;5090070;28;19993;-79
2022/10/07 06:16:00;;;;;;;;;;;;;;;10.10;100.00;-25349.88;5076367;28;19944;-77
2022/10/07 06:18:26;;;;;;;;;;;;;;;10.09;100.00;-25349.44;5072073;28;19916;-79
2022/10/07 06:20:57;;;;;;;;;;;;;;;10.09;100.00;-25349.44;5073275;28;20346;-79
2022/10/07 06:23:23;;;;;;;;;;;;;;;10.09;100.00;-25349.56;5076304;28;19928;-79
2022/10/07 06:25:58;;;;;;;;;;;;;;;10.13;100.00;-25350.75;5072563;28;20012;-79
2022/10/07 06:28:24;;;;;;;;;;;;;;;10.19;100.00;-25352.50;5088628;28;19920;-79
2022/10/07 06:30:51;;;;;;;;;;;;;;;10.21;100.00;-25353.09;5078720;28;19924;-78
2022/10/07 06:33:18;;;;;;;;;;;;;;;10.29;100.00;-25355.31;5090445;28;19951;-79
2022/10/07 06:35:44;;;;;;;;;;;;;;;10.31;100.00;-25355.75;5089382;28;19920;-79
2022/10/07 06:38:12;;;;;;;;;;;;;;;10.34;100.00;-25356.63;5088964;28;19966;-79
2022/10/07 06:40:38;;;;;;;;;;;;;;;10.32;100.00;-25356.19;5092334;28;19916;-79
2022/10/07 06:43:04;;;;;;;;;;;;;;;10.32;100.00;-25356.19;5092368;28;19985;-76
2022/10/07 06:45:33;;;;;;;;;;;;;;;10.39;100.00;-25358.09;5091763;28;19927;-82
2022/10/07 06:47:58;;;;;;;;;;;;;;;10.40;100.00;-25358.53;5092676;28;19924;-78
2022/10/07 06:50:25;;;;;;;;;;;;;;;10.47;100.00;-25360.28;5093251;28;19916;-78
2022/10/07 06:52:50;;;;;;;;;;;;;;;10.46;100.00;-25360.16;5091575;28;20336;-79
2022/10/07 06:55:16;;;;;;;;;;;;;;;10.54;100.00;-25362.34;5091440;28;19923;-78
2022/10/07 06:57:45;;;;;;;;;;;;;;;10.57;100.00;-25363.22;5091623;28;20352;-78
2022/10/07 07:00:11;;;;;;;;;;;;;;;10.66;100.00;-25365.72;5074544;28;19923;-78
2022/10/07 07:02:39;;;;;;;;;;;;;;;10.70;100.00;-25366.91;5093337;28;19916;-78
2022/10/07 07:05:07;;;;;;;;;;;;;;;10.74;100.00;-25368.22;5091724;28;19955;-79
2022/10/07 07:07:34;;;;;;;;;;;;;;;10.76;100.00;-25368.66;5090482;28;20380;-79
2022/10/07 07:10:02;;;;;;;;;;;;;;;10.91;100.00;-25372.91;5074359;28;19974;-78
2022/10/07 07:12:32;;;;;;;;;;;;;;;11.20;100.00;-25381.25;5091339;28;19916;-77
2022/10/07 07:14:59;;;;;;;;;;;;;;;11.43;100.00;-25387.84;5093838;28;20384;-78
2022/10/07 07:17:25;;;;;;;;;;;;;;;11.62;100.00;-25393.28;5092840;28;19916;-80
2022/10/07 07:19:51;;;;;;;;;;;;;;;11.69;100.00;-25395.19;5076133;28;19924;-78
2022/10/07 07:22:26;;;;;;;;;;;;;;;11.67;100.00;-25394.75;5092907;28;20394;-80
2022/10/07 07:24:53;;;;;;;;;;;;;;;11.70;100.00;-25395.47;5076149;28;20289;-80
2022/10/07 07:27:18;;;;;;;;;;;;;;;11.70;100.00;-25395.31;5092992;28;20257;-79
2022/10/07 07:29:46;;;;;;;;;;;;;;;11.74;100.00;-25396.50;5075017;28;20296;-79
2022/10/07 07:32:11;;;;;;;;;;;;;;;11.74;100.00;-25396.50;5076622;28;20019;-79
2022/10/07 07:34:37;;;;;;;;;;;;;;;11.77;100.00;-25397.53;5092723;28;20265;-81
2022/10/07 07:37:03;;;;;;;;;;;;;;;11.82;100.00;-25397.06;5093743;28;19920;-77
2022/10/07 07:39:30;;;;;;;;;;;;;;;11.89;100.00;-24417.53;5076028;28;20256;-77
2022/10/07 07:41:55;;;;;;;;;;;;;;;11.95;100.00;-23110.28;5092867;28;19920;-77
2022/10/07 07:44:22;;;;;;;;;;;;;;;12.21;100.00;-22461.91;5092896;28;19975;-76
2022/10/07 07:46:52;;;;;;;;;;;;;;;12.72;100.00;-21490.66;5075363;28;20410;-79
2022/10/07 07:49:19;;;;;;;;;;;;;;;13.09;100.00;-18217.31;5092684;28;19912;-81
2022/10/07 07:51:46;;;;;;;;;;;;;;;13.41;100.00;-13621.50;5093290;28;20299;-81
2022/10/07 07:54:12;;;;;;;;;;;;;;;13.62;100.00;-8027.00;5093642;28;19916;-78
2022/10/07 07:56:38;;;;;;;;;;;;;;;14.13;100.00;-1097.13;5092890;28;20280;-80
2022/10/07 07:59:07;;;;;;;;;;;;;;;14.00;100.00;8821.56;5076439;28;19924;-78
2022/10/07 08:01:34;;;;;;;;;;;;;;;14.01;100.00;17439.91;5092679;28;20367;-79
2022/10/07 08:04:02;;;;;;;;;;;;;;;13.88;100.00;24740.53;5093406;28;19920;-80
2022/10/07 08:06:30;;;;;;;;;;;;;;;13.42;100.00;27374.88;5092687;28;20440;-80
2022/10/07 08:08:56;;;;;;;;;;;;;;;13.22;100.00;24374.53;5092369;28;19920;-82
2022/10/07 08:11:22;;;;;;;;;;;;;;;13.54;100.00;19079.69;5092700;28;19969;-79
2022/10/07 08:13:54;;;;;;;;;;;;;;;13.92;100.00;18763.63;5076407;28;20014;-81
2022/10/07 08:16:20;;;;;;;;;;;;;;;14.30;100.00;21769.53;5092601;28;19970;-82
2022/10/07 08:18:46;;;;;;;;;;;;;;;14.85;100.00;26454.97;5093357;28;19916;-82
2022/10/07 08:21:14;;;;;;;;;;;;;;;14.95;100.00;37802.28;5094880;28;20209;-78
2022/10/07 08:23:43;;;;;;;;;;;;;;;14.54;100.00;46462.16;5096266;28;19924;-78
2022/10/07 08:26:08;;;;;;;;;;;;;;;14.31;100.00;45773.41;5097121;28;19916;-80
2022/10/07 08:28:36;;;;;;;;;;;;;;;14.11;100.00;42415.28;5079850;28;19927;-82
2022/10/07 08:31:10;;;;;;;;;;;;;;;14.10;100.00;36073.09;5095734;28;19916;-79
2022/10/07 08:33:38;;;;;;;;;;;;;;;13.96;100.00;32731.28;5093850;28;19962;-78
2022/10/07 08:36:04;;;;;;;;;;;;;;;13.94;100.00;27736.34;5095557;28;19920;-80
2022/10/07 08:38:30;;;;;;;;;;;;;;;13.69;100.00;24398.50;5094917;28;19927;-78
2022/10/07 08:40:57;;;;;;;;;;;;;;;13.54;100.00;19079.47;5095530;28;19999;-78
2022/10/07 08:43:23;;;;;;;;;;;;;;;13.58;100.00;14108.19;5095230;28;20092;-79
2022/10/07 08:45:50;;;;;;;;;;;;;;;13.62;100.00;11128.78;5095423;28;20380;-79
2022/10/07 08:48:20;;;;;;;;;;;;;;;13.70;100.00;9144.78;5094964;28;20273;-80
2022/10/07 08:50:54;;;;;;;;;;;;;;;13.71;100.00;8152.16;5095091;28;19916;-79
2022/10/07 08:53:26;;;;;;;;;;;;;;;13.70;100.00;7490.19;5095014;28;19962;-78
2022/10/07 08:55:54;;;;;;;;;;;;;;;13.78;100.00;7161.31;5094428;28;20291;-79
2022/10/07 08:58:19;;;;;;;;;;;;;;;13.75;100.00;6829.91;5094754;28;20372;-79
2022/10/07 09:00:45;;;;;;;;;;;;;;;13.80;100.00;6830.94;5096020;28;19916;-79
2022/10/07 09:03:19;;;;;;;;;;;;;;;14.08;100.00;6506.31;5078024;28;19916;-79
2022/10/07 09:05:48;;;;;;;;;;;;;;;14.40;100.00;7838.16;5094695;28;20014;-81
2022/10/07 09:08:20;;;;;;;;;;;;;;;14.50;100.00;11817.97;5094856;28;20022;-78
2022/10/07 09:10:48;;;;;;;;;;;;;;;14.62;100.00;15471.53;5095141;28;20313;-79
2022/10/07 09:13:32;;;;;;;;;;;;;;;14.72;100.00;20126.63;5094329;28;19919;-79
2022/10/07 09:15:57;;;;;;;;;;;;;;;14.60;100.00;23779.25;5094998;28;19959;-79
2022/10/07 09:18:38;;;;;;;;;;;;;;;14.58;100.00;25441.69;5077518;28;19964;-78
2022/10/07 09:21:06;;;;;;;;;;;;;;;14.75;100.00;26782.69;5093913;28;19920;-79
2022/10/07 09:23:35;;;;;;;;;;;;;;;14.83;100.00;29119.03;5094064;28;20426;-78
2022/10/07 09:26:01;;;;;;;;;;;;;;;14.99;100.00;30795.69;5077954;28;19924;-79
2022/10/07 09:28:28;;;;;;;;;;;;;;;15.17;100.00;34143.59;5094343;28;19916;-79
2022/10/07 09:30:54;;;;;;;;;;;;;;;15.17;100.00;36147.66;5094747;28;19920;-79
2022/10/07 09:33:24;;;;;;;;;;;;;;;15.04;100.00;38476.84;5092752;28;19916;-78
2022/10/07 09:35:52;;;;;;;;;;;;;;;15.07;100.00;39147.53;5093628;28;20334;-77
2022/10/07 09:38:27;;;;;;;;;;;;;;;15.19;100.00;41497.13;5075705;28;19924;-78
2022/10/07 09:41:16;;;;;;;;;;;;;;;15.51;100.00;43530.97;5093715;28;20438;-78
2022/10/07 09:44:02;;;;;;;;;;;;;;;15.42;100.00;52909.44;5095279;28;19916;-78
2022/10/07 09:46:34;;;;;;;;;;;;;;;15.56;100.00;57288.41;5074551;28;20360;-77
2022/10/07 09:49:03;;;;;;;;;;;;;;;15.59;100.00;60654.13;5093701;28;19958;-78
2022/10/07 09:51:30;;;;;;;;;;;;;;;15.67;100.00;65711.50;5093988;28;19918;-78
2022/10/07 09:53:57;;;;;;;;;;;;;;;16.05;100.00;69127.59;5093807;28;19916;-78
2022/10/07 09:56:38;;;;;;;;;;;;;;;16.17;100.00;78936.97;5093578;28;19919;-78
2022/10/07 09:59:23;;;;;;;;;;;;;;;16.29;100.00;89793.69;5093298;28;19916;-78
2022/10/07 10:01:53;;;;;;;;;;;;;;;16.28;100.00;99640.00;5091591;28;19971;-77
2022/10/07 10:04:23;;;;;;;;;;;;;;;16.29;100.00;104404.56;5075376;28;19927;-77
2022/10/07 10:06:53;;;;;;;;;;;;;;;16.19;100.00;111879.59;5094651;28;20348;-79
2022/10/07 10:09:20;;;;;;;;;;;;;;;16.21;100.00;113247.72;5093033;28;20297;-79
2022/10/07 10:11:59;;;;;;;;;;;;;;;16.26;100.00;115304.91;5093877;28;19965;-79
2022/10/07 10:14:49;;;;;;;;;;;;;;;16.29;100.00;117700.88;5093065;28;20015;-77
2022/10/07 10:17:27;;;;;;;;;;;;;;;16.05;100.00;117994.75;5068447;28;19920;-75
2022/10/07 10:19:52;;;;;;;;;;;;;;;16.34;100.00;112591.31;5078226;28;19942;-82
2022/10/07 10:22:23;;;;;;;;;;;;;;;16.27;100.00;114965.66;5094438;28;20375;-81
2022/10/07 10:27:38;;;;;;;;;;;;;;;15.90;100.00;110120.81;5096437;28;19974;-82
2022/10/07 10:30:04;;;;;;;;;;;;;;;15.93;100.00;97201.22;5094591;28;19916;-84
2022/10/07 10:33:00;;;;;;;;;;;;;;;16.00;100.00;94157.66;5094960;28;19962;-84
2022/10/07 10:35:26;;;;;;;;;;;;;;;16.27;100.00;91147.38;5095457;28;19916;-83
2022/10/07 10:37:56;;;;;;;;;;;;;;;16.31;100.00;96586.31;5078185;28;19965;-85
2022/10/07 10:40:22;;;;;;;;;;;;;;;16.50;100.00;103079.63;5078691;28;20010;-83
2022/10/07 10:42:48;;;;;;;;;;;;;;;16.30;100.00;113606.81;5079991;28;19958;-82
2022/10/07 10:45:24;;;;;;;;;;;;;;;16.22;100.00;123153.56;5079381;28;19955;-85
2022/10/07 10:48:04;;;;;;;;;;;;;;;16.07;100.00;124832.97;5096534;28;20004;-76
2022/10/07 10:50:51;;;;;;;;;;;;;;;16.18;100.00;123146.03;5090688;28;19962;-78
2022/10/07 10:53:26;;;;;;;;;;;;;;;16.00;100.00;125501.63;5075690;28;20326;-78
2022/10/07 10:55:53;;;;;;;;;;;;;;;16.00;100.00;119007.63;5076244;28;20010;-77
2022/10/07 10:58:30;;;;;;;;;;;;;;;15.97;100.00;119344.91;5075486;28;19923;-77
2022/10/07 11:01:08;;;;;;;;;;;;;;;15.96;100.00;113881.91;5092982;28;19923;-78
2022/10/07 11:03:34;;;;;;;;;;;;;;;16.22;100.00;111204.59;5092456;28;19927;-78
2022/10/07 11:06:02;;;;;;;;;;;;;;;16.20;100.00;109154.69;5075266;28;19920;-79
2022/10/07 11:08:32;;;;;;;;;;;;;;;16.35;100.00;107478.81;5075296;28;19973;-78
2022/10/07 11:11:00;;;;;;;;;;;;;;;16.36;100.00;107822.38;5092710;28;19916;-79
2022/10/07 11:13:26;;;;;;;;;;;;;;;16.45;100.00;113978.03;5092144;28;20395;-78
2022/10/07 11:16:00;;;;;;;;;;;;;;;16.55;100.00;115361.66;5075745;28;19912;-78
2022/10/07 11:18:40;;;;;;;;;;;;;;;16.37;100.00;136546.13;5075566;28;20050;-78
2022/10/07 11:21:11;;;;;;;;;;;;;;;16.40;100.00;146857.72;5092566;28;19916;-77
2022/10/07 11:24:03;;;;;;;;;;;;;;;16.50;100.00;146882.03;5092384;28;20046;-78
2022/10/07 11:26:36;;;;;;;;;;;;;;;16.45;100.00;146869.22;5050628;28;19916;-78
2022/10/07 11:29:09;;;;;;;;;;;;;;;16.48;100.00;146876.88;5092818;28;19923;-78
2022/10/07 11:31:35;;;;;;;;;;;;;;;16.50;100.00;146883.28;5075731;28;19931;-78
2022/10/07 11:34:17;;;;;;;;;;;;;;;16.58;100.00;146901.16;5092759;28;19917;-78
2022/10/07 11:37:02;;;;;;;;;;;;;;;16.59;100.00;146904.97;5092536;28;19969;-78
2022/10/07 11:39:28;;;;;;;;;;;;;;;16.56;100.00;146897.31;5075014;28;19969;-79
2022/10/07 11:41:56;;;;;;;;;;;;;;;16.56;100.00;146897.31;5092116;28;20026;-78
2022/10/07 11:44:29;;;;;;;;;;;;;;;16.67;100.00;146925.47;5075798;28;19912;-78
2022/10/07 11:47:00;;;;;;;;;;;;;;;16.62;100.00;146911.38;5092382;28;19916;-81
2022/10/07 11:49:30;;;;;;;;;;;;;;;16.76;100.00;146947.16;5092774;28;19912;-79
2022/10/07 11:52:00;;;;;;;;;;;;;;;16.86;100.00;146971.50;5092325;28;19938;-82
2022/10/07 11:54:45;;;;;;;;;;;;;;;16.75;100.00;146943.31;5091655;28;19912;-84
2022/10/07 11:57:23;;;;;;;;;;;;;;;16.58;100.00;146902.47;5094786;28;19923;-80
2022/10/07 11:59:50;;;;;;;;;;;;;;;16.61;100.00;146910.13;5097312;28;20394;-80
2022/10/07 12:02:28;;;;;;;;;;;;;;;16.85;100.00;145663.28;5095894;28;19917;-82
2022/10/07 12:04:54;;;;;;;;;;;;;;;16.93;100.00;146989.38;5079601;28;20003;-79
2022/10/07 12:07:38;;;;;;;;;;;;;;;16.96;100.00;146995.78;5078520;28;19924;-79
2022/10/07 12:10:25;;;;;;;;;;;;;;;17.02;100.00;147011.13;5079168;28;19933;-79
2022/10/07 12:13:01;;;;;;;;;;;;;;;17.14;100.00;147041.78;5079308;28;19927;-79
2022/10/07 12:15:43;;;;;;;;;;;;;;;17.12;100.00;147035.38;5095073;28;20390;-81
2022/10/07 12:18:11;;;;;;;;;;;;;;;17.14;100.00;147041.78;5096301;28;19969;-83
2022/10/07 12:20:45;;;;;;;;;;;;;;;16.97;100.00;146998.34;5080204;28;20034;-85
2022/10/07 12:23:49;;;;;;;;;;;;;;;16.97;100.00;146999.63;5100763;28;19973;-83
2022/10/07 12:26:34;;;;;;;;;;;;;;;16.89;100.00;146977.88;5100466;28;20003;-82
2022/10/07 12:29:02;;;;;;;;;;;;;;;16.94;100.00;146991.94;5116103;22;19912;-80
2022/10/07 12:31:30;;;;;;;;;;;;;;;16.79;100.00;146953.56;5063622;28;20392;-84
2022/10/07 12:34:08;;;;;;;;;;;;;;;16.89;100.00;146977.88;5061989;28;19916;-83
2022/10/07 12:36:34;;;;;;;;;;;;;;;16.98;100.00;147000.88;5064040;28;20384;-81
2022/10/07 12:38:59;;;;;;;;;;;;;;;17.12;100.00;147036.69;5065157;28;19916;-84
2022/10/07 12:41:28;;;;;;;;;;;;;;;17.11;100.00;147032.84;5065581;28;19924;-84
2022/10/07 12:44:09;;;;;;;;;;;;;;;17.11;100.00;147032.84;5076989;28;20384;-82
2022/10/07 12:46:37;;;;;;;;;;;;;;;17.33;100.00;147087.81;5058914;28;19920;-84
2022/10/07 12:49:05;;;;;;;;;;;;;;;17.20;100.00;147055.88;5059155;28;19927;-80
2022/10/07 12:51:38;;;;;;;;;;;;;;;17.01;100.00;147008.53;5058562;28;19917;-83
2022/10/07 12:54:27;;;;;;;;;;;;;;;16.92;100.00;146985.53;5059265;28;19923;-84
2022/10/07 12:56:53;;;;;;;;;;;;;;;16.79;100.00;146953.56;5058006;28;19922;-84